createdAt,value
2023-02-03T00:00:40.109Z,95.09
2023-02-03T00:03:07.860Z,95.44
2023-02-03T00:05:35.594Z,95.54
2023-02-03T00:08:04.051Z,95.13
2023-02-03T00:10:30.464Z,95.72
2023-02-03T00:12:57.752Z,95.21
2023-02-03T00:15:24.306Z,95.53
2023-02-03T00:17:50.806Z,95.34
2023-02-03T00:20:17.352Z,96.05
2023-02-03T00:22:43.803Z,96.01
2023-02-03T00:25:10.465Z,96.23
2023-02-03T00:27:37.480Z,96.88
2023-02-03T00:30:04.573Z,97.25
2023-02-03T00:32:31.384Z,97.69
2023-02-03T00:34:57.919Z,97.85
2023-02-03T00:37:24.389Z,97.89
2023-02-03T00:39:50.788Z,98.34
2023-02-03T00:42:17.216Z,98.68
2023-02-03T00:44:43.618Z,98.64
2023-02-03T00:47:10.028Z,99.17
2023-02-03T00:49:36.634Z,98.94
2023-02-03T00:52:03.109Z,98.88
2023-02-03T00:54:29.510Z,98.77
2023-02-03T00:56:56.419Z,98.71
2023-02-03T00:59:22.845Z,98.58
2023-02-03T01:01:51.000Z,98.85
2023-02-03T01:04:17.492Z,98.37
2023-02-03T01:06:43.876Z,98.08
2023-02-03T01:09:10.430Z,97.92
2023-02-03T01:11:36.946Z,97.75
2023-02-03T01:14:03.640Z,97.75
2023-02-03T01:16:31.366Z,97.66
2023-02-03T01:18:57.870Z,97.12
2023-02-03T01:21:26.289Z,97.10
2023-02-03T01:23:53.848Z,96.92
2023-02-03T01:26:22.227Z,96.69
2023-02-03T01:28:59.051Z,96.72
2023-02-03T01:31:31.837Z,96.19
2023-02-03T01:33:58.739Z,95.69
2023-02-03T01:36:27.025Z,95.51
2023-02-03T01:38:54.170Z,95.16
2023-02-03T01:41:29.343Z,95.05
2023-02-03T01:43:58.068Z,94.57
2023-02-03T01:46:44.611Z,94.86
2023-02-03T01:49:18.481Z,94.19
2023-02-03T01:51:46.855Z,94.11
2023-02-03T01:54:18.863Z,94.35
2023-02-03T01:56:48.708Z,93.79
2023-02-03T01:59:19.702Z,93.69
2023-02-03T02:01:46.781Z,93.77
2023-02-03T02:04:14.748Z,93.54
2023-02-03T02:06:41.170Z,93.37
2023-02-03T02:09:08.399Z,93.41
2023-02-03T02:11:34.847Z,93.10
2023-02-03T02:14:02.971Z,93.16
2023-02-03T02:16:42.538Z,93.61
2023-02-03T02:19:28.077Z,93.16
2023-02-03T02:22:20.677Z,94.07
2023-02-03T02:25:11.291Z,93.24
2023-02-03T02:28:05.732Z,93.30
2023-02-03T02:30:53.059Z,93.85
2023-02-03T02:33:44.106Z,93.43
2023-02-03T02:36:56.799Z,93.87
2023-02-03T02:39:27.708Z,92.98
2023-02-03T02:42:06.324Z,93.46
2023-02-03T02:44:39.070Z,93.26
2023-02-03T02:47:16.233Z,92.98
2023-02-03T02:50:03.260Z,93.26
2023-02-03T02:52:34.403Z,92.89
2023-02-03T02:55:24.572Z,92.82
2023-02-03T02:57:55.448Z,92.59
2023-02-03T03:00:23.126Z,91.92
2023-02-03T03:02:50.004Z,92.22
2023-02-03T03:05:17.954Z,91.61
2023-02-03T03:08:04.205Z,91.99
2023-02-03T03:10:32.795Z,91.26
2023-02-03T03:13:04.388Z,91.34
2023-02-03T03:15:33.906Z,90.84
2023-02-03T03:18:03.740Z,90.80
2023-02-03T03:20:32.860Z,90.24
2023-02-03T03:23:10.526Z,90.22
2023-02-03T03:25:43.414Z,89.91
2023-02-03T03:28:40.856Z,90.12
2023-02-03T03:31:07.838Z,89.07
2023-02-03T03:33:34.424Z,89.04
2023-02-03T03:36:42.949Z,89.34
2023-02-03T03:39:20.751Z,89.14
2023-02-03T03:42:00.702Z,89.38
2023-02-03T03:44:34.023Z,88.97
2023-02-03T03:47:14.876Z,89.68
2023-02-03T03:49:45.103Z,89.00
2023-02-03T03:52:18.656Z,89.40
2023-02-03T03:54:47.698Z,89.43
2023-02-03T03:57:24.040Z,89.48
2023-02-03T03:59:51.196Z,89.81
2023-02-03T04:02:21.082Z,89.92
2023-02-03T04:04:48.576Z,89.80
2023-02-03T04:07:15.460Z,90.22
2023-02-03T04:09:42.913Z,90.26
2023-02-03T04:12:19.867Z,91.03
2023-02-03T04:14:46.248Z,91.09
2023-02-03T04:17:12.668Z,90.99
2023-02-03T04:19:39.360Z,91.14
2023-02-03T04:22:05.915Z,91.35
2023-02-03T04:24:32.341Z,91.51
2023-02-03T04:26:58.749Z,91.93
2023-02-03T04:29:25.140Z,92.60
2023-02-03T04:31:51.647Z,92.27
2023-02-03T04:34:18.096Z,92.71
2023-02-03T04:36:44.481Z,92.68
2023-02-03T04:39:10.937Z,93.22
2023-02-03T04:41:37.747Z,93.41
2023-02-03T04:44:04.285Z,93.68
2023-02-03T04:46:30.726Z,93.82
2023-02-03T04:48:57.490Z,93.79
2023-02-03T04:51:23.980Z,93.49
2023-02-03T04:53:50.450Z,93.89
2023-02-03T04:56:16.820Z,93.84
2023-02-03T04:58:43.307Z,94.06
2023-02-03T05:01:10.127Z,94.04
2023-02-03T05:03:36.678Z,94.74
2023-02-03T05:06:03.497Z,94.28
2023-02-03T05:08:30.877Z,94.48
2023-02-03T05:10:57.552Z,94.36
2023-02-03T05:13:24.101Z,94.54
2023-02-03T05:15:50.595Z,94.33
2023-02-03T05:18:17.235Z,94.18
2023-02-03T05:20:43.636Z,94.43
2023-02-03T05:23:10.332Z,94.18
2023-02-03T05:25:36.804Z,94.74
2023-02-03T05:28:03.433Z,94.34
2023-02-03T05:30:30.111Z,94.52
2023-02-03T05:32:56.756Z,94.46
2023-02-03T05:35:23.163Z,94.42
2023-02-03T05:37:49.628Z,94.41
2023-02-03T05:40:34.508Z,94.21
2023-02-03T05:43:00.958Z,94.00
2023-02-03T05:45:27.409Z,94.44
2023-02-03T05:47:53.867Z,94.75
2023-02-03T05:50:20.278Z,94.66
2023-02-03T05:52:46.703Z,94.73
2023-02-03T05:55:13.098Z,94.51
2023-02-03T05:57:39.515Z,94.55
2023-02-03T06:00:07.454Z,94.60
2023-02-03T06:02:34.111Z,94.54
2023-02-03T06:05:00.497Z,94.88
2023-02-03T06:07:26.963Z,94.78
2023-02-03T06:09:53.532Z,94.42
2023-02-03T06:12:19.950Z,94.88
2023-02-03T06:14:46.494Z,94.61
2023-02-03T06:17:12.870Z,95.09
2023-02-03T06:19:39.320Z,95.05
2023-02-03T06:22:05.795Z,95.13
2023-02-03T06:24:32.308Z,95.74
2023-02-03T06:26:58.678Z,95.61
2023-02-03T06:29:25.180Z,95.75
2023-02-03T06:31:51.730Z,95.88
2023-02-03T06:34:18.184Z,95.75
2023-02-03T06:36:44.614Z,95.74
2023-02-03T06:39:10.987Z,96.24
2023-02-03T06:41:37.679Z,96.20
2023-02-03T06:44:04.098Z,96.14
2023-02-03T06:46:30.935Z,96.53
2023-02-03T06:48:57.435Z,96.66
2023-02-03T06:51:24.824Z,96.78
2023-02-03T06:53:51.459Z,96.98
2023-02-03T06:56:17.888Z,96.88
2023-02-03T06:58:44.638Z,97.16
2023-02-03T07:01:11.157Z,97.26
2023-02-03T07:03:37.751Z,97.16
2023-02-03T07:06:04.353Z,96.63
2023-02-03T07:08:30.814Z,96.78
2023-02-03T07:10:57.272Z,96.69
2023-02-03T07:13:23.787Z,96.83
2023-02-03T07:15:50.729Z,96.51
2023-02-03T07:18:36.040Z,96.42
2023-02-03T07:21:07.006Z,96.44
2023-02-03T07:23:33.604Z,96.88
2023-02-03T07:26:01.420Z,97.09
2023-02-03T07:28:27.825Z,97.05
2023-02-03T07:30:54.382Z,96.47
2023-02-03T07:33:20.949Z,96.38
2023-02-03T07:35:58.704Z,97.25
2023-02-03T07:38:27.420Z,96.43
2023-02-03T07:40:54.199Z,96.56
2023-02-03T07:43:20.687Z,96.41
2023-02-03T07:45:47.188Z,96.17
2023-02-03T07:48:13.852Z,96.11
2023-02-03T07:50:40.533Z,95.98
2023-02-03T07:53:09.303Z,96.17
2023-02-03T07:55:38.086Z,96.62
2023-02-03T07:58:04.698Z,96.25
2023-02-03T08:00:31.291Z,96.04
2023-02-03T08:02:57.763Z,96.18
2023-02-03T08:05:24.331Z,95.61
2023-02-03T08:07:50.770Z,95.84
2023-02-03T08:10:17.931Z,95.28
2023-02-03T08:12:45.476Z,93.44
2023-02-03T08:15:13.133Z,92.85
2023-02-03T08:17:41.271Z,91.89
2023-02-03T08:20:11.365Z,90.83
2023-02-03T08:22:37.889Z,89.93
2023-02-03T08:25:04.742Z,90.04
2023-02-03T08:27:32.709Z,90.51
2023-02-03T08:29:59.748Z,90.55
2023-02-03T08:32:26.533Z,90.29
2023-02-03T08:34:53.580Z,89.54
2023-02-03T08:37:24.570Z,89.54
2023-02-03T08:39:51.723Z,88.92
2023-02-03T08:42:18.474Z,88.34
2023-02-03T08:44:44.912Z,87.25
2023-02-03T08:47:12.146Z,86.00
2023-02-03T08:49:41.689Z,83.84
2023-02-03T08:52:11.692Z,84.08
2023-02-03T08:54:39.019Z,83.20
2023-02-03T08:57:06.157Z,82.34
2023-02-03T08:59:36.041Z,82.20
2023-02-03T09:02:07.021Z,82.00
2023-02-03T09:04:34.099Z,82.62
2023-02-03T09:07:02.509Z,82.14
2023-02-03T09:09:29.107Z,81.82
2023-02-03T09:12:00.648Z,81.19
2023-02-03T09:14:27.154Z,81.45
2023-02-03T09:16:53.681Z,81.17
2023-02-03T09:19:20.271Z,81.44
2023-02-03T09:21:48.997Z,80.97
2023-02-03T09:24:16.467Z,80.99
2023-02-03T09:26:42.876Z,80.87
2023-02-03T09:29:09.387Z,80.48
2023-02-03T09:31:36.449Z,80.08
2023-02-03T09:34:02.963Z,79.98
2023-02-03T09:36:29.497Z,79.66
2023-02-03T09:38:57.823Z,79.38
2023-02-03T09:42:09.492Z,78.84
2023-02-03T09:44:47.839Z,78.42
2023-02-03T09:47:22.935Z,77.12
2023-02-03T09:50:16.339Z,77.01
2023-02-03T09:52:44.279Z,77.05
2023-02-03T09:55:35.769Z,76.98
2023-02-03T09:58:14.398Z,74.79
2023-02-03T10:00:51.495Z,76.09
2023-02-03T10:03:39.507Z,75.75
2023-02-03T10:06:24.750Z,75.55
2023-02-03T10:09:24.460Z,75.63
2023-02-03T10:12:06.332Z,75.40
2023-02-03T10:14:35.556Z,74.60
2023-02-03T10:17:30.702Z,73.94
2023-02-03T10:20:04.022Z,72.82
2023-02-03T10:22:34.366Z,71.92
2023-02-03T10:25:07.793Z,72.22
2023-02-03T10:27:37.485Z,71.04
2023-02-03T10:30:16.854Z,70.52
2023-02-03T10:32:43.483Z,69.36
2023-02-03T10:35:14.111Z,69.77
2023-02-03T10:37:51.125Z,69.15
2023-02-03T10:40:19.965Z,68.47
2023-02-03T10:43:08.020Z,68.27
2023-02-03T10:45:38.390Z,68.31
2023-02-03T10:48:09.962Z,67.90
2023-02-03T10:50:38.526Z,68.26
2023-02-03T10:53:31.928Z,68.49
2023-02-03T10:56:04.250Z,68.38
2023-02-03T10:58:33.341Z,68.16
2023-02-03T11:01:06.209Z,68.77
2023-02-03T11:03:33.899Z,68.18
2023-02-03T11:08:38.445Z,67.34
2023-02-03T11:11:21.658Z,66.80
2023-02-03T11:14:10.184Z,66.81
2023-02-03T11:16:39.508Z,65.59
2023-02-03T11:19:20.784Z,65.99
2023-02-03T11:21:52.999Z,65.80
2023-02-03T11:24:29.277Z,65.35
2023-02-03T11:27:16.533Z,65.25
2023-02-03T11:29:49.160Z,64.33
2023-02-03T11:32:36.537Z,64.15
2023-02-03T11:35:24.049Z,64.25
2023-02-03T11:37:55.988Z,64.63
2023-02-03T11:40:29.076Z,64.09
2023-02-03T11:42:55.970Z,64.20
2023-02-03T11:45:45.072Z,64.57
2023-02-03T11:48:24.471Z,64.58
2023-02-03T11:51:12.787Z,63.52
2023-02-03T11:54:05.738Z,63.01
2023-02-03T11:56:57.867Z,63.10
2023-02-03T11:59:37.300Z,62.49
2023-02-03T12:02:18.923Z,63.17
2023-02-03T12:05:04.591Z,62.40
2023-02-03T12:07:57.140Z,61.65
2023-02-03T12:11:05.173Z,61.85
2023-02-03T12:13:47.051Z,61.17
2023-02-03T12:16:19.527Z,61.75
2023-02-03T12:19:13.976Z,61.77
2023-02-03T12:21:40.617Z,61.61
2023-02-03T12:24:19.301Z,61.96
2023-02-03T12:27:22.302Z,61.57
2023-02-03T12:30:12.275Z,61.77
2023-02-03T12:32:48.905Z,62.19
2023-02-03T12:35:41.488Z,62.43
2023-02-03T12:38:07.868Z,62.90
2023-02-03T12:40:42.557Z,63.47
2023-02-03T12:43:50.685Z,63.81
2023-02-03T12:46:26.255Z,63.88
2023-02-03T12:48:55.761Z,64.20
2023-02-03T12:51:35.177Z,64.67
2023-02-03T12:54:10.591Z,64.74
2023-02-03T12:56:41.917Z,64.54
2023-02-03T12:59:25.783Z,64.72
2023-02-03T13:02:01.487Z,64.51
2023-02-03T13:04:36.853Z,64.70
2023-02-03T13:07:25.893Z,64.55
2023-02-03T13:10:03.658Z,64.63
2023-02-03T13:12:41.853Z,64.63
2023-02-03T13:15:39.733Z,64.63
2023-02-03T13:18:29.729Z,64.54
2023-02-03T13:20:56.575Z,64.88
2023-02-03T13:23:24.820Z,65.21
2023-02-03T13:26:15.845Z,65.16
2023-02-03T13:28:48.297Z,65.06
2023-02-03T13:31:33.553Z,65.20
2023-02-03T13:34:11.042Z,65.48
2023-02-03T13:37:06.864Z,65.88
2023-02-03T13:39:53.198Z,66.15
2023-02-03T13:42:30.796Z,65.95
2023-02-03T13:45:05.456Z,65.66
2023-02-03T13:47:32.993Z,65.31
2023-02-03T13:50:03.419Z,64.90
2023-02-03T13:52:45.711Z,64.67
2023-02-03T13:55:28.200Z,64.70
2023-02-03T13:57:55.111Z,64.18
2023-02-03T14:00:43.140Z,64.70
2023-02-03T14:03:24.732Z,64.22
2023-02-03T14:05:54.714Z,64.63
2023-02-03T14:08:30.023Z,64.66
2023-02-03T14:11:33.725Z,64.50
2023-02-03T14:14:12.153Z,64.85
2023-02-03T14:16:52.051Z,64.99
2023-02-03T14:19:29.790Z,65.12
2023-02-03T14:21:59.278Z,65.34
2023-02-03T14:24:45.498Z,65.68
2023-02-03T14:27:23.586Z,66.04
2023-02-03T14:30:13.264Z,66.09
2023-02-03T14:33:01.002Z,66.38
2023-02-03T14:35:33.233Z,66.32
2023-02-03T14:38:06.972Z,66.35
2023-02-03T14:40:59.885Z,66.66
2023-02-03T14:43:58.443Z,66.57
2023-02-03T14:46:53.903Z,66.72
2023-02-03T14:49:39.144Z,66.66
2023-02-03T14:52:17.417Z,67.12
2023-02-03T14:55:10.779Z,66.82
2023-02-03T14:57:37.130Z,66.81
2023-02-03T15:00:07.252Z,66.79
2023-02-03T15:02:35.141Z,66.53
2023-02-03T15:05:14.167Z,66.61
2023-02-03T15:07:45.738Z,66.73
2023-02-03T15:10:18.791Z,66.95
2023-02-03T15:12:53.845Z,66.66
2023-02-03T15:15:23.843Z,66.97
2023-02-03T15:17:52.603Z,66.97
2023-02-03T15:20:41.396Z,66.93
2023-02-03T15:23:19.745Z,66.94
2023-02-03T15:25:46.492Z,66.79
2023-02-03T15:28:19.379Z,66.98
2023-02-03T15:30:47.340Z,67.22
2023-02-03T15:33:21.790Z,67.54
2023-02-03T15:35:52.977Z,67.58
2023-02-03T15:38:26.061Z,67.59
2023-02-03T15:40:58.880Z,67.61
2023-02-03T15:43:50.763Z,67.62
2023-02-03T15:46:24.208Z,67.69
2023-02-03T15:48:54.895Z,67.63
2023-02-03T15:51:37.514Z,67.61
2023-02-03T15:54:12.463Z,67.00
2023-02-03T15:56:45.694Z,67.41
2023-02-03T15:59:26.765Z,67.50
2023-02-03T16:01:54.063Z,67.27
2023-02-03T16:04:22.239Z,67.34
2023-02-03T16:06:51.245Z,67.57
2023-02-03T16:09:44.130Z,67.68
2023-02-03T16:12:18.756Z,67.67
2023-02-03T16:14:46.790Z,67.40
2023-02-03T16:17:28.789Z,68.28
2023-02-03T16:20:10.705Z,68.20
2023-02-03T16:22:43.456Z,69.29
2023-02-03T16:25:23.489Z,69.86
2023-02-03T16:28:35.494Z,70.27
2023-02-03T16:31:29.395Z,71.00
2023-02-03T16:34:14.716Z,71.10
2023-02-03T16:37:02.290Z,71.85
2023-02-03T16:39:47.477Z,72.37
2023-02-03T16:42:36.298Z,72.80
2023-02-03T16:45:24.232Z,73.38
2023-02-03T16:48:09.334Z,74.01
2023-02-03T16:50:53.691Z,74.96
2023-02-03T16:53:30.495Z,76.18
2023-02-03T16:56:02.270Z,77.61
2023-02-03T16:58:28.781Z,77.94
2023-02-03T17:01:03.258Z,79.51
2023-02-03T17:03:32.761Z,79.77
2023-02-03T17:06:04.491Z,79.81
2023-02-03T17:08:31.249Z,81.37
2023-02-03T17:11:06.675Z,81.53
2023-02-03T17:13:33.768Z,81.65
2023-02-03T17:16:00.609Z,81.90
2023-02-03T17:18:27.186Z,81.46
2023-02-03T17:20:55.715Z,82.01
2023-02-03T17:23:23.485Z,81.59
2023-02-03T17:25:50.366Z,81.41
2023-02-03T17:28:17.631Z,82.06
2023-02-03T17:30:44.282Z,81.78
2023-02-03T17:33:14.265Z,82.33
2023-02-03T17:35:45.498Z,81.99
2023-02-03T17:38:13.362Z,82.13
2023-02-03T17:54:35.214Z,83.00
2023-02-03T17:57:02.247Z,83.85
2023-02-03T17:59:28.812Z,83.15
2023-02-03T18:01:55.239Z,83.92
2023-02-03T18:04:21.659Z,83.68
2023-02-03T18:06:48.176Z,83.74
2023-02-03T18:09:16.508Z,83.53
2023-02-03T18:11:43.574Z,83.17
2023-02-03T18:14:11.234Z,82.91
2023-02-03T18:16:37.996Z,82.63
2023-02-03T18:19:07.760Z,82.24
2023-02-03T18:21:37.736Z,81.79
2023-02-03T18:24:05.831Z,81.33
2023-02-03T18:26:36.802Z,81.33
2023-02-03T18:29:05.687Z,80.51
2023-02-03T18:31:32.783Z,80.33
2023-02-03T18:34:03.712Z,80.57
2023-02-03T18:36:30.193Z,80.36
2023-02-03T18:38:56.660Z,80.56
2023-02-03T18:41:25.023Z,80.62
2023-02-03T18:43:51.562Z,80.68
2023-02-03T18:46:24.820Z,81.15
2023-02-03T18:48:51.483Z,81.36
2023-02-03T18:51:19.849Z,82.14
2023-02-03T18:53:49.025Z,82.33
2023-02-03T18:56:18.118Z,82.23
2023-02-03T18:58:44.750Z,82.46
2023-02-03T19:01:24.408Z,83.63
2023-02-03T19:03:51.216Z,83.23
2023-02-03T19:06:18.565Z,84.05
2023-02-03T19:08:45.602Z,84.07
2023-02-03T19:11:13.571Z,84.43
2023-02-03T19:13:41.216Z,84.99
2023-02-03T19:16:08.540Z,84.92
2023-02-03T19:18:36.189Z,85.07
2023-02-03T19:21:02.661Z,85.34
2023-02-03T19:23:29.373Z,85.65
2023-02-03T19:25:56.257Z,86.15
2023-02-03T19:28:30.462Z,86.13
2023-02-03T19:31:08.377Z,86.45
2023-02-03T19:33:35.735Z,85.94
2023-02-03T19:36:02.722Z,85.94
2023-02-03T19:38:29.409Z,85.44
2023-02-03T19:40:56.006Z,85.38
2023-02-03T19:43:25.173Z,85.61
2023-02-03T19:45:51.905Z,85.06
2023-02-03T19:48:18.739Z,84.87
2023-02-03T19:50:47.882Z,85.41
2023-02-03T19:53:16.202Z,85.30
2023-02-03T19:55:43.668Z,84.85
2023-02-03T19:58:11.554Z,85.12
2023-02-03T20:00:38.289Z,84.82
2023-02-03T20:03:05.584Z,84.33
2023-02-03T20:05:32.237Z,83.59
2023-02-03T20:07:58.756Z,82.24
2023-02-03T20:10:28.293Z,81.77
2023-02-03T20:12:55.353Z,80.85
2023-02-03T20:15:22.105Z,80.23
2023-02-03T20:17:49.116Z,80.12
2023-02-03T20:20:18.593Z,80.22
2023-02-03T20:22:46.276Z,79.64
2023-02-03T20:25:12.997Z,79.54
2023-02-03T20:27:39.894Z,79.36
2023-02-03T20:30:07.082Z,79.16
2023-02-03T20:32:34.308Z,79.39
2023-02-03T20:35:01.062Z,79.66
2023-02-03T20:37:27.686Z,80.67
2023-02-03T20:39:54.223Z,80.42
2023-02-03T20:42:20.652Z,80.82
2023-02-03T20:44:47.192Z,81.17
2023-02-03T20:47:17.767Z,81.18
2023-02-03T20:49:44.633Z,81.75
2023-02-03T20:52:16.973Z,82.85
2023-02-03T20:54:44.240Z,82.79
2023-02-03T20:57:19.009Z,83.02
2023-02-03T20:59:46.558Z,83.21
2023-02-03T21:02:32.998Z,84.19
2023-02-03T21:05:02.225Z,82.93
2023-02-03T21:07:30.714Z,83.01
2023-02-03T21:09:59.840Z,82.43
2023-02-03T21:12:36.021Z,83.13
2023-02-03T21:15:02.926Z,82.47
2023-02-03T21:17:35.210Z,82.26
2023-02-03T21:20:01.772Z,82.02
2023-02-03T21:22:30.272Z,81.94
2023-02-03T21:24:58.363Z,82.00
2023-02-03T21:27:47.013Z,80.78
2023-02-03T21:30:33.046Z,80.21
2023-02-03T21:33:01.237Z,78.34
2023-02-03T21:35:37.608Z,77.66
2023-02-03T21:38:25.934Z,77.65
2023-02-03T21:40:52.386Z,76.09
2023-02-03T21:43:19.541Z,74.85
2023-02-03T21:45:46.167Z,74.53
2023-02-03T21:48:26.082Z,75.14
2023-02-03T21:50:54.254Z,73.45
2023-02-03T21:53:31.983Z,73.64
2023-02-03T21:56:15.686Z,73.44
2023-02-03T21:58:43.922Z,72.71
2023-02-03T22:01:16.407Z,72.52
2023-02-03T22:03:47.584Z,72.58
2023-02-03T22:06:42.793Z,72.76
2023-02-03T22:09:12.806Z,72.52
2023-02-03T22:11:39.525Z,72.63
2023-02-03T22:14:06.401Z,72.94
2023-02-03T22:16:33.174Z,73.01
2023-02-03T22:18:59.665Z,72.98
2023-02-03T22:21:26.547Z,73.19
2023-02-03T22:23:53.170Z,73.25
2023-02-03T22:26:20.436Z,73.49
2023-02-03T22:31:30.779Z,73.74
2023-02-03T22:33:57.297Z,73.65
2023-02-03T22:36:23.767Z,73.76
2023-02-03T22:38:50.398Z,73.73
2023-02-03T22:41:16.845Z,73.76
2023-02-03T22:43:43.297Z,74.00
2023-02-03T22:46:09.843Z,73.79
2023-02-03T22:48:36.565Z,73.72
2023-02-03T22:51:03.344Z,73.71
2023-02-03T22:53:30.126Z,74.04
2023-02-03T22:55:56.646Z,74.07
2023-02-03T22:58:23.082Z,74.10
2023-02-03T23:00:49.581Z,74.34
2023-02-03T23:03:16.290Z,74.39
2023-02-03T23:05:43.009Z,74.53
2023-02-03T23:08:09.890Z,74.51
2023-02-03T23:10:36.506Z,74.55
2023-02-03T23:13:03.016Z,74.69
2023-02-03T23:15:29.683Z,74.76
2023-02-03T23:17:56.143Z,74.78
2023-02-03T23:20:23.090Z,74.44
2023-02-03T23:22:49.591Z,74.36
2023-02-03T23:25:16.050Z,74.26
2023-02-03T23:27:42.640Z,73.76
2023-02-03T23:30:10.312Z,73.44
2023-02-03T23:32:36.849Z,73.10
2023-02-03T23:35:21.822Z,72.94
2023-02-03T23:37:48.278Z,72.50
2023-02-03T23:40:14.997Z,72.62
2023-02-03T23:42:41.925Z,72.11
2023-02-03T23:45:11.659Z,72.00
2023-02-03T23:47:40.054Z,72.06
2023-02-03T23:50:09.339Z,72.04
2023-02-03T23:52:39.045Z,72.34
2023-02-03T23:55:11.748Z,72.73
2023-02-03T23:57:38.720Z,72.70
